Time;durP1;ratioP1;P1;durP2;ratioP2;P2;SDS_P1;SDS_P2;PMS_P1;PMS_P2;Temp;Humidity;BMP_temperature;BMP_pressure;BME280_temperature;BME280_humidity;BME280_pressure;Samples;Min_cycle;Max_cycle;Signal;HPM_P1;HPM_P2
2024/02/07 00:01:53;;;;;;;2.80;2.50;;;;;;;6.06;100.00;99777.38;6219027;28;20228;-71
2024/02/07 00:05:16;;;;;;;10.10;2.50;;;;;;;6.11;100.00;99785.00;6222937;28;20232;-72
2024/02/07 00:08:40;;;;;;;7.07;2.17;;;;;;;6.11;100.00;99780.47;6218468;28;20232;-70
2024/02/07 00:12:01;;;;;;;7.63;1.90;;;;;;;6.10;100.00;99765.41;6218941;28;20525;-70
2024/02/07 00:15:22;;;;;;;3.20;2.13;;;;;;;6.16;100.00;99764.88;6220791;28;20232;-71
2024/02/07 00:18:43;;;;;;;3.57;1.60;;;;;;;6.18;100.00;99770.06;6228548;28;20239;-70
2024/02/07 00:22:05;;;;;;;3.53;2.10;;;;;;;6.15;100.00;99767.69;6222289;28;20497;-69
2024/02/07 00:25:27;;;;;;;6.77;2.73;;;;;;;6.19;100.00;99771.78;6220395;28;20831;-72
2024/02/07 00:28:49;;;;;;;8.03;2.87;;;;;;;6.12;100.00;99778.66;6228243;28;20232;-70
2024/02/07 00:32:10;;;;;;;4.57;1.83;;;;;;;6.07;100.00;99787.06;6214084;28;20610;-71
2024/02/07 00:35:31;;;;;;;4.67;1.87;;;;;;;6.11;100.00;99769.75;6203055;28;20305;-71
2024/02/07 00:38:53;;;;;;;5.87;2.30;;;;;;;6.08;100.00;99767.38;6231309;28;20248;-70
2024/02/07 00:42:14;;;;;;;5.90;3.10;;;;;;;6.18;100.00;99778.09;6230364;28;20546;-70
2024/02/07 00:45:36;;;;;;;4.90;2.43;;;;;;;6.18;100.00;99778.94;6221725;28;20236;-70
2024/02/07 00:48:58;;;;;;;9.03;3.10;;;;;;;6.03;100.00;99766.91;6237907;28;20341;-69
2024/02/07 00:52:21;;;;;;;3.10;1.87;;;;;;;5.92;100.00;99774.22;6229441;28;20224;-70
2024/02/07 00:55:44;;;;;;;5.83;3.27;;;;;;;5.95;100.00;99771.25;6227536;28;20236;-71
2024/02/07 00:59:05;;;;;;;5.67;2.47;;;;;;;6.00;100.00;99775.22;6220120;28;20237;-71
2024/02/07 01:02:26;;;;;;;3.27;1.90;;;;;;;5.91;100.00;99775.16;6165541;28;22297;-70
2024/02/07 01:05:47;;;;;;;4.37;2.23;;;;;;;5.96;100.00;99772.94;6224655;28;20244;-71
2024/02/07 01:09:10;;;;;;;4.93;2.23;;;;;;;6.04;100.00;99784.69;6215772;28;20229;-72
2024/02/07 01:12:32;;;;;;;7.57;3.83;;;;;;;5.97;100.00;99777.31;6231857;28;20314;-71
2024/02/07 01:15:53;;;;;;;6.80;2.63;;;;;;;5.93;100.00;99773.22;6219485;28;20599;-70
2024/02/07 01:19:14;;;;;;;6.47;2.63;;;;;;;5.95;100.00;99780.13;6235832;28;20248;-70
2024/02/07 01:22:35;;;;;;;4.63;2.17;;;;;;;6.00;100.00;99771.69;6222048;28;20233;-70
2024/02/07 01:25:57;;;;;;;8.67;2.97;;;;;;;5.94;100.00;99766.91;6228865;28;20314;-70
2024/02/07 01:29:19;;;;;;;8.30;2.50;;;;;;;6.02;100.00;99764.38;6235225;28;20614;-70
2024/02/07 01:32:41;;;;;;;12.60;3.43;;;;;;;5.98;100.00;99771.84;6220555;28;20248;-70
2024/02/07 01:36:06;;;;;;;4.00;2.00;;;;;;;5.94;100.00;99777.59;6229077;28;20260;-72
2024/02/07 01:39:27;;;;;;;3.57;2.03;;;;;;;5.91;100.00;99765.31;6191263;28;20229;-70
2024/02/07 01:42:48;;;;;;;5.60;2.37;;;;;;;5.97;100.00;99772.81;6227244;28;20225;-70
2024/02/07 01:46:11;;;;;;;8.70;2.63;;;;;;;5.94;100.00;99777.59;6224725;28;20596;-70
2024/02/07 01:49:32;;;;;;;6.83;3.37;;;;;;;5.94;100.00;99773.09;6189225;28;20229;-73
2024/02/07 01:52:56;;;;;;;4.30;2.87;;;;;;;5.91;100.00;99767.16;6219802;28;20233;-71
2024/02/07 01:56:17;;;;;;;12.10;2.23;;;;;;;5.86;100.00;99777.41;6226585;28;20228;-72
2024/02/07 01:59:39;;;;;;;7.40;3.80;;;;;;;5.87;100.00;99755.03;6227540;28;20233;-71
2024/02/07 02:03:01;;;;;;;4.50;2.43;;;;;;;5.82;100.00;99757.25;6205821;28;20228;-70
2024/02/07 02:06:22;;;;;;;4.90;2.97;;;;;;;5.82;100.00;99760.75;6226087;28;20232;-71
2024/02/07 02:10:11;;;;;;;9.13;2.73;;;;;;;5.84;100.00;99755.31;6214431;28;20236;-71
2024/02/07 02:13:32;;;;;;;5.97;3.27;;;;;;;5.80;100.00;99751.19;6221289;28;20224;-70
2024/02/07 02:16:53;;;;;;;8.93;2.90;;;;;;;5.78;100.00;99763.84;6223774;28;20220;-68
2024/02/07 02:20:15;;;;;;;5.37;2.33;;;;;;;5.81;100.00;99764.41;6229333;28;20232;-70
2024/02/07 02:23:59;;;;;;;10.43;3.80;;;;;;;5.75;100.00;99756.06;6227538;28;20228;-70
2024/02/07 02:27:35;;;;;;;6.27;2.60;;;;;;;5.82;100.00;99754.56;6228541;28;20240;-70
2024/02/07 02:31:00;;;;;;;9.50;4.20;;;;;;;5.84;100.00;99755.31;6208805;28;20228;-69
2024/02/07 02:34:21;;;;;;;9.17;3.67;;;;;;;5.79;100.00;99750.31;6227882;28;20236;-70
2024/02/07 02:37:42;;;;;;;4.93;3.13;;;;;;;5.77;100.00;99749.63;6207274;28;20236;-70
2024/02/07 02:41:07;;;;;;;5.70;2.60;;;;;;;5.92;100.00;99750.13;6208635;28;20244;-72
2024/02/07 02:44:29;;;;;;;6.13;3.07;;;;;;;5.84;100.00;99752.63;6221758;28;20612;-70
2024/02/07 02:47:51;;;;;;;11.47;3.70;;;;;;;5.83;100.00;99749.06;6198835;28;20228;-70
2024/02/07 02:51:12;;;;;;;10.57;3.87;;;;;;;5.86;100.00;99756.84;6231779;28;20231;-69
2024/02/07 02:54:34;;;;;;;5.13;3.20;;;;;;;5.84;100.00;99758.81;6230672;28;20323;-70
2024/02/07 02:57:58;;;;;;;5.97;3.50;;;;;;;5.90;100.00;99752.09;6221995;28;20224;-70
2024/02/07 03:01:19;;;;;;;16.03;4.87;;;;;;;5.94;100.00;99748.16;6221821;28;20249;-70
2024/02/07 03:04:42;;;;;;;6.90;3.27;;;;;;;6.06;100.00;99752.44;6206052;28;20230;-70
2024/02/07 03:08:15;;;;;;;5.07;3.70;;;;;;;6.09;100.00;99731.59;6221043;28;20260;-71
2024/02/07 03:11:36;;;;;;;13.70;3.93;;;;;;;6.05;100.00;99759.59;6226402;28;20232;-70
2024/02/07 03:14:57;;;;;;;6.00;3.47;;;;;;;6.14;100.00;99739.22;6228571;28;20232;-70
2024/02/07 03:18:18;;;;;;;12.33;4.70;;;;;;;6.11;100.00;99758.25;6226623;28;21327;-70
2024/02/07 03:21:40;;;;;;;6.90;4.10;;;;;;;6.17;100.00;99758.56;6219455;28;20225;-70
2024/02/07 03:25:01;;;;;;;9.70;3.50;;;;;;;6.12;100.00;99762.59;6223227;28;20228;-69
2024/02/07 03:28:22;;;;;;;10.87;4.17;;;;;;;6.13;100.00;99756.28;6232521;28;20315;-68
2024/02/07 03:31:44;;;;;;;5.90;3.23;;;;;;;6.11;100.00;99753.72;6224798;28;20573;-70
2024/02/07 03:35:06;;;;;;;7.30;4.53;;;;;;;6.21;100.00;99764.47;6224767;28;20228;-71
2024/02/07 03:38:29;;;;;;;15.13;5.87;;;;;;;6.24;100.00;99766.84;6232511;28;20229;-71
2024/02/07 03:41:52;;;;;;;12.90;5.17;;;;;;;6.21;100.00;99765.31;6221020;28;20228;-70
2024/02/07 03:45:16;;;;;;;10.57;5.17;;;;;;;6.21;100.00;99768.00;6227226;28;20228;-69
2024/02/07 03:48:37;;;;;;;9.60;4.47;;;;;;;6.14;100.00;99766.84;6220840;28;20990;-70
2024/02/07 03:51:58;;;;;;;9.43;4.73;;;;;;;6.28;100.00;99765.59;6220362;28;20320;-70
2024/02/07 03:55:20;;;;;;;7.77;4.43;;;;;;;6.27;100.00;99775.47;6222114;28;20243;-70
2024/02/07 03:58:41;;;;;;;10.87;4.53;;;;;;;6.34;100.00;99773.94;6224670;28;20232;-70
2024/02/07 04:02:02;;;;;;;17.27;3.83;;;;;;;6.42;100.00;99766.06;6211119;28;20311;-70
2024/02/07 04:05:23;;;;;;;14.47;4.77;;;;;;;6.19;100.00;99796.72;6218222;28;21105;-70
2024/02/07 04:08:44;;;;;;;18.03;7.27;;;;;;;6.11;100.00;99793.03;6225932;28;20229;-72
2024/02/07 05:17:53;;;;;;;5.67;2.60;;;;;;;5.78;100.00;99882.31;6219799;28;20228;-70
2024/02/07 05:21:16;;;;;;;8.07;3.07;;;;;;;5.72;100.00;99877.50;6221838;28;21383;-71
2024/02/07 05:24:37;;;;;;;7.87;4.47;;;;;;;5.76;100.00;99884.28;6226254;28;20611;-70
2024/02/07 05:27:58;;;;;;;3.67;3.27;;;;;;;5.77;100.00;99890.47;6225253;28;20629;-70
2024/02/07 05:31:19;;;;;;;4.97;3.20;;;;;;;5.79;100.00;99901.88;6209400;28;20673;-70
2024/02/07 05:34:40;;;;;;;12.47;5.47;;;;;;;5.76;100.00;99903.00;6228166;28;20257;-70
2024/02/07 05:38:03;;;;;;;6.37;4.27;;;;;;;5.88;100.00;99917.19;6222134;28;20224;-70
2024/02/07 05:41:24;;;;;;;10.00;4.37;;;;;;;5.86;100.00;99919.97;6222236;28;20248;-70
2024/02/07 05:44:46;;;;;;;5.20;2.93;;;;;;;5.67;100.00;99922.50;6225211;28;20232;-70
2024/02/07 05:48:08;;;;;;;12.10;4.23;;;;;;;5.72;100.00;99935.44;6221499;28;20236;-70
2024/02/07 05:51:29;;;;;;;11.17;3.90;;;;;;;5.77;100.00;99944.81;6219793;28;20240;-70
2024/02/07 05:54:51;;;;;;;6.33;3.20;;;;;;;5.67;100.00;99947.38;6211123;28;20236;-70
2024/02/07 05:58:12;;;;;;;8.47;3.53;;;;;;;5.70;100.00;99959.66;6223546;28;20839;-70
2024/02/07 06:01:33;;;;;;;5.73;2.93;;;;;;;5.65;100.00;99961.88;6187008;28;20225;-71
2024/02/07 06:04:54;;;;;;;9.37;4.57;;;;;;;5.61;100.00;99965.78;6227624;28;20229;-71
2024/02/07 06:08:15;;;;;;;14.97;3.70;;;;;;;5.55;100.00;99969.78;6224507;28;20228;-70
2024/02/07 06:11:41;;;;;;;11.93;2.83;;;;;;;5.53;100.00;99977.09;6218895;28;21907;-70
2024/02/07 06:15:03;;;;;;;8.17;4.13;;;;;;;5.54;100.00;99977.94;6226858;28;20252;-70
2024/02/07 06:18:24;;;;;;;6.37;3.93;;;;;;;5.48;100.00;99990.00;6227241;28;20244;-70
2024/02/07 06:21:45;;;;;;;7.33;3.27;;;;;;;5.52;100.00;99986.09;6220248;28;20328;-70
2024/02/07 06:25:06;;;;;;;5.93;3.00;;;;;;;5.54;100.00;99986.81;6210405;28;20220;-70
2024/02/07 06:28:28;;;;;;;7.43;3.77;;;;;;;5.50;100.00;99997.88;6217709;28;20241;-71
2024/02/07 06:31:49;;;;;;;4.43;2.80;;;;;;;5.47;100.00;99995.44;6211854;28;20646;-70
2024/02/07 06:35:10;;;;;;;4.73;2.80;;;;;;;5.43;100.00;99991.34;6220514;28;20264;-69
2024/02/07 06:38:31;;;;;;;13.10;3.77;;;;;;;5.42;100.00;99998.50;6188709;28;20240;-69
2024/02/07 06:41:52;;;;;;;6.30;3.93;;;;;;;5.37;100.00;100006.06;6218501;28;20220;-70
2024/02/07 06:45:40;;;;;;;11.30;2.60;;;;;;;5.44;100.00;100019.78;6220336;28;20312;-73
2024/02/07 06:49:01;;;;;;;4.67;3.03;;;;;;;5.44;100.00;100019.78;6222863;28;20252;-68
2024/02/07 06:52:22;;;;;;;6.90;3.30;;;;;;;5.41;100.00;100039.56;6211308;28;20224;-68
2024/02/07 06:55:43;;;;;;;3.37;2.43;;;;;;;5.39;100.00;100038.84;6197854;28;20340;-69
2024/02/07 06:59:04;;;;;;;3.90;3.10;;;;;;;5.34;100.00;100045.56;6224246;28;20224;-69
2024/02/07 07:02:26;;;;;;;8.47;4.00;;;;;;;5.35;100.00;100050.75;6212747;28;20238;-69
2024/02/07 07:05:47;;;;;;;7.47;2.97;;;;;;;5.29;100.00;100051.25;6203185;28;20295;-68
2024/02/07 07:09:08;;;;;;;12.03;4.13;;;;;;;5.84;100.00;100065.53;6217824;28;20264;-71
2024/02/07 07:12:31;;;;;;;27.10;4.90;;;;;;;5.60;100.00;100074.53;6213632;28;20557;-67
2024/02/07 07:15:51;;;;;;;11.27;4.40;;;;;;;5.34;100.00;100074.94;6211251;28;20236;-68
2024/02/07 07:19:14;;;;;;;13.27;2.73;;;;;;;5.32;100.00;100066.19;6217804;28;20245;-68
2024/02/07 07:22:35;;;;;;;11.23;4.00;;;;;;;5.27;100.00;100071.06;6219402;28;20220;-68
2024/02/07 07:25:56;;;;;;;4.03;2.90;;;;;;;5.20;100.00;100070.69;6209249;28;20232;-69
2024/02/07 07:29:17;;;;;;;8.03;3.57;;;;;;;5.23;100.00;100082.97;6218916;28;20244;-69
2024/02/07 07:32:38;;;;;;;11.90;3.10;;;;;;;5.07;100.00;100088.66;6193973;28;20244;-68
2024/02/07 07:36:00;;;;;;;3.93;3.00;;;;;;;5.15;100.00;100094.25;6211971;28;20233;-68
2024/02/07 07:39:21;;;;;;;8.33;4.03;;;;;;;5.13;100.00;100111.38;6214947;28;20232;-68
2024/02/07 07:42:42;;;;;;;6.30;3.37;;;;;;;5.18;100.00;100114.50;6204884;28;20741;-68
2024/02/07 07:46:03;;;;;;;5.90;2.63;;;;;;;5.29;100.00;100119.88;6200236;28;20247;-67
2024/02/07 07:49:24;;;;;;;3.77;2.73;;;;;;;5.36;100.00;100126.44;6227840;28;20507;-67
2024/02/07 07:52:47;;;;;;;6.63;2.97;;;;;;;5.37;100.00;100136.13;6216316;28;20224;-68
2024/02/07 07:56:08;;;;;;;11.53;4.27;;;;;;;5.39;100.00;100127.03;6213874;28;20780;-66
2024/02/07 07:59:31;;;;;;;5.13;3.40;;;;;;;5.43;100.00;100136.50;6221374;28;20232;-68
2024/02/07 08:02:52;;;;;;;11.13;3.30;;;;;;;5.43;100.00;100149.88;6210776;28;20232;-69
2024/02/07 08:06:13;;;;;;;4.50;3.73;;;;;;;5.52;100.00;100151.81;6213799;28;20252;-68
2024/02/07 08:09:36;;;;;;;10.43;3.87;;;;;;;5.64;100.00;100171.38;6223714;28;20233;-68
2024/02/07 08:12:56;;;;;;;5.37;3.00;;;;;;;5.66;100.00;100164.06;6213536;28;20555;-68
2024/02/07 08:16:17;;;;;;;10.50;3.40;;;;;;;5.66;100.00;100172.94;6216205;28;20542;-68
2024/02/07 08:19:38;;;;;;;12.00;3.80;;;;;;;5.69;100.00;100183.38;6219792;28;20224;-69
2024/02/07 08:22:58;;;;;;;8.93;4.70;;;;;;;5.66;100.00;100188.13;6224489;28;20228;-68
2024/02/07 08:26:21;;;;;;;6.07;3.10;;;;;;;5.81;100.00;100176.22;6226754;28;20490;-68
2024/02/07 08:29:42;;;;;;;11.53;3.63;;;;;;;5.88;100.00;100181.97;6227308;28;20236;-68
2024/02/07 08:33:04;;;;;;;8.37;3.87;;;;;;;5.93;100.00;100185.09;6208112;28;20232;-68
2024/02/07 08:36:25;;;;;;;7.90;3.47;;;;;;;5.94;100.00;100190.34;6207368;28;20224;-70
2024/02/07 08:39:46;;;;;;;6.93;3.43;;;;;;;5.85;100.00;100195.56;6210833;28;20225;-69
2024/02/07 08:43:12;;;;;;;13.30;3.90;;;;;;;6.08;100.00;100198.09;6209463;28;20248;-67
2024/02/07 08:46:33;;;;;;;8.40;3.63;;;;;;;6.24;100.00;100195.88;6206674;28;20929;-68
2024/02/07 08:49:54;;;;;;;27.23;5.07;;;;;;;6.34;100.00;100201.34;6212791;28;20228;-69
2024/02/07 08:53:15;;;;;;;5.20;2.67;;;;;;;6.83;100.00;100201.63;6214332;28;20272;-68
2024/02/07 08:56:36;;;;;;;6.67;3.77;;;;;;;6.73;100.00;100216.78;6208706;28;20240;-69
2024/02/07 08:59:58;;;;;;;12.33;3.73;;;;;;;6.51;100.00;100218.69;6211777;28;20591;-69
2024/02/07 09:03:19;;;;;;;5.93;3.37;;;;;;;7.24;100.00;100223.06;6211209;28;20237;-69
2024/02/07 09:06:40;;;;;;;6.17;3.57;;;;;;;7.00;100.00;100219.81;6203711;28;20821;-69
2024/02/07 09:10:02;;;;;;;11.07;3.37;;;;;;;7.00;100.00;100224.31;6214266;28;20260;-69
2024/02/07 09:13:23;;;;;;;12.60;6.07;;;;;;;6.93;100.00;100232.00;6226416;28;20229;-69
2024/02/07 09:16:45;;;;;;;7.80;3.80;;;;;;;6.60;100.00;100234.81;6212456;28;20232;-69
2024/02/07 09:20:08;;;;;;;9.37;3.97;;;;;;;6.66;100.00;100231.63;6224427;28;20669;-68
2024/02/07 09:23:28;;;;;;;9.73;3.60;;;;;;;6.75;100.00;100224.66;6219624;28;20233;-69
2024/02/07 09:26:50;;;;;;;8.80;3.20;;;;;;;6.59;100.00;100243.00;6222332;28;20232;-70
2024/02/07 09:30:12;;;;;;;7.07;3.17;;;;;;;6.63;100.00;100249.78;6212383;28;20232;-69
2024/02/07 09:33:34;;;;;;;6.63;3.40;;;;;;;6.92;100.00;100249.09;6223323;28;20229;-69
2024/02/07 09:36:55;;;;;;;8.87;3.27;;;;;;;7.56;100.00;100249.81;6219944;28;20403;-68
2024/02/07 09:40:19;;;;;;;6.33;2.50;;;;;;;8.14;100.00;100260.78;6220052;28;20311;-68
2024/02/07 09:43:40;;;;;;;6.60;3.83;;;;;;;8.20;100.00;100266.47;6223609;28;20233;-69
2024/02/07 09:47:01;;;;;;;8.17;2.57;;;;;;;8.83;100.00;100258.03;6220322;28;20224;-69
2024/02/07 09:50:24;;;;;;;4.80;3.13;;;;;;;8.94;100.00;100272.31;6216394;28;20221;-68
2024/02/07 09:53:47;;;;;;;4.13;2.63;;;;;;;8.42;100.00;100268.13;6226331;28;20244;-69
2024/02/07 09:57:08;;;;;;;4.73;3.80;;;;;;;8.16;100.00;100272.25;6207814;28;20621;-71
2024/02/07 10:00:29;;;;;;;9.70;2.97;;;;;;;7.95;100.00;100266.94;6215760;28;20229;-68
2024/02/07 10:03:54;;;;;;;10.63;3.20;;;;;;;7.26;100.00;100264.00;6226568;28;20228;-69
2024/02/07 10:07:18;;;;;;;8.43;3.17;;;;;;;7.31;100.00;100274.34;6221421;28;20314;-68
2024/02/07 10:10:44;;;;;;;12.67;3.40;;;;;;;7.53;100.00;100278.72;6217462;28;20229;-68
2024/02/07 10:14:05;;;;;;;7.83;3.97;;;;;;;7.05;100.00;100279.22;6219251;28;20240;-70
2024/02/07 10:17:26;;;;;;;5.77;2.90;;;;;;;6.97;100.00;100291.53;6197996;28;20237;-68
2024/02/07 10:20:54;;;;;;;4.13;3.07;;;;;;;7.11;100.00;100302.81;6206985;28;20258;-69
2024/02/07 10:24:16;;;;;;;3.80;2.53;;;;;;;7.22;100.00;100301.91;6205145;28;20303;-67
2024/02/07 10:27:37;;;;;;;12.60;4.30;;;;;;;7.46;100.00;100305.22;6222443;28;20232;-67
2024/02/07 10:31:01;;;;;;;7.00;3.00;;;;;;;7.72;100.00;100309.19;6185608;28;20610;-67
2024/02/07 10:34:24;;;;;;;5.60;3.73;;;;;;;7.59;100.00;100324.66;6219186;28;21040;-67
2024/02/07 10:37:52;;;;;;;8.70;3.10;;;;;;;7.39;100.00;100322.78;6214711;28;20232;-67
2024/02/07 10:41:14;;;;;;;5.50;3.07;;;;;;;7.24;100.00;100321.41;6215213;28;20236;-67
2024/02/07 10:44:35;;;;;;;7.30;2.57;;;;;;;7.28;100.00;100324.69;6226730;28;20247;-68
2024/02/07 10:47:57;;;;;;;9.60;2.33;;;;;;;7.63;100.00;100323.41;6208560;28;20509;-67
2024/02/07 10:51:18;;;;;;;4.77;2.03;;;;;;;7.95;100.00;100324.16;6210775;28;20954;-66
2024/02/07 10:54:39;;;;;;;5.63;2.57;;;;;;;8.55;100.00;100323.28;6208926;28;20327;-66
2024/02/07 10:58:03;;;;;;;3.07;1.57;;;;;;;8.86;100.00;100319.53;6217069;28;20236;-69
2024/02/07 11:01:25;;;;;;;11.33;2.30;;;;;;;8.83;100.00;100327.91;6213098;28;20232;-67
2024/02/07 11:04:46;;;;;;;7.57;3.07;;;;;;;8.14;100.00;100315.34;6210860;28;20237;-67
2024/02/07 11:08:08;;;;;;;6.20;2.63;;;;;;;8.93;100.00;100311.78;6219727;28;20225;-67
2024/02/07 11:11:29;;;;;;;7.40;2.50;;;;;;;8.82;100.00;100312.75;6213665;28;20249;-68
2024/02/07 11:14:52;;;;;;;5.03;2.50;;;;;;;9.63;100.00;100308.81;6212113;28;20232;-67
2024/02/07 11:18:14;;;;;;;7.63;2.67;;;;;;;8.87;99.23;100317.72;6217767;28;20240;-67
2024/02/07 11:21:38;;;;;;;10.20;2.90;;;;;;;8.57;100.00;100318.63;6214495;28;20582;-68
2024/02/07 11:25:00;;;;;;;7.00;3.07;;;;;;;8.31;100.00;100333.53;6223636;28;20331;-67
2024/02/07 11:28:21;;;;;;;5.97;2.60;;;;;;;7.88;100.00;100338.25;6207391;28;20229;-69
2024/02/07 11:31:44;;;;;;;3.90;2.40;;;;;;;7.65;100.00;100334.00;6218501;28;20232;-69
2024/02/07 11:35:08;;;;;;;7.70;3.33;;;;;;;7.68;100.00;100326.53;6217436;28;20236;-69
2024/02/07 11:38:36;;;;;;;6.00;2.27;;;;;;;7.81;100.00;100329.88;6208495;28;20616;-66
2024/02/07 11:41:57;;;;;;;10.63;2.27;;;;;;;7.98;100.00;100328.41;6213062;28;20538;-65
2024/02/07 11:45:19;;;;;;;8.20;2.90;;;;;;;8.28;100.00;100325.75;6218891;28;20228;-66
2024/02/07 11:48:42;;;;;;;6.30;3.00;;;;;;;7.99;100.00;100339.00;6206824;28;20228;-68
2024/02/07 11:52:03;;;;;;;5.23;2.90;;;;;;;8.16;100.00;100336.69;6198312;28;20236;-67
2024/02/07 11:55:24;;;;;;;8.87;3.00;;;;;;;7.99;100.00;100333.63;6216716;28;20232;-67
2024/02/07 11:58:46;;;;;;;8.90;3.33;;;;;;;8.33;100.00;100333.41;6228217;28;20237;-68
2024/02/07 12:02:09;;;;;;;6.87;2.67;;;;;;;8.28;100.00;100328.44;6224038;28;20602;-67
2024/02/07 12:05:31;;;;;;;6.53;2.67;;;;;;;8.08;100.00;100348.94;6207837;28;20529;-67
2024/02/07 12:08:55;;;;;;;5.80;2.23;;;;;;;8.22;100.00;100347.72;6222102;28;20248;-67
2024/02/07 12:12:16;;;;;;;4.20;2.53;;;;;;;8.15;100.00;100361.84;6225793;28;20231;-67
2024/02/07 12:15:37;;;;;;;6.20;1.80;;;;;;;7.83;100.00;100357.41;6220558;28;20252;-66
2024/02/07 12:18:58;;;;;;;4.87;1.73;;;;;;;7.50;100.00;100354.94;6229117;28;20235;-67
2024/02/07 12:22:20;;;;;;;3.33;2.23;;;;;;;7.36;100.00;100362.44;6224508;28;20248;-67
2024/02/07 12:25:41;;;;;;;4.20;1.67;;;;;;;7.41;100.00;100370.91;6230407;28;20236;-66
2024/02/07 12:29:06;;;;;;;4.23;1.53;;;;;;;7.25;100.00;100358.81;6208211;28;20486;-67
2024/02/07 12:32:26;;;;;;;7.10;1.63;;;;;;;7.32;100.00;100372.56;6215676;28;20707;-67
2024/02/07 12:35:49;;;;;;;5.33;2.63;;;;;;;7.31;100.00;100362.81;6223224;28;20233;-65
2024/02/07 12:39:11;;;;;;;2.60;2.10;;;;;;;7.14;100.00;100368.72;6227113;28;20775;-69
2024/02/07 12:42:32;;;;;;;7.00;2.33;;;;;;;7.21;100.00;100367.25;6224462;28;20633;-67
2024/02/07 12:45:55;;;;;;;8.07;2.87;;;;;;;7.36;100.00;100365.97;6222928;28;20240;-68
2024/02/07 12:49:16;;;;;;;4.80;2.10;;;;;;;7.07;100.00;100376.41;6231468;28;20610;-68
2024/02/07 12:52:38;;;;;;;9.00;2.80;;;;;;;7.26;100.00;100373.06;6220902;28;20249;-67
2024/02/07 12:56:00;;;;;;;4.90;2.30;;;;;;;7.31;100.00;100376.22;6223128;28;20228;-68
2024/02/07 12:59:29;;;;;;;9.10;2.53;;;;;;;7.03;100.00;100379.50;6223296;28;20236;-67
2024/02/07 13:02:50;;;;;;;2.63;1.93;;;;;;;7.39;100.00;100376.41;6221513;28;20224;-66
2024/02/07 13:06:11;;;;;;;3.67;2.10;;;;;;;7.34;100.00;100378.66;6216372;28;20220;-66
2024/02/07 13:09:32;;;;;;;2.07;1.80;;;;;;;7.37;100.00;100380.19;6228911;28;20236;-66
2024/02/07 13:12:54;;;;;;;6.73;2.10;;;;;;;7.66;100.00;100378.59;6219993;28;20276;-67
2024/02/07 13:16:15;;;;;;;3.97;2.47;;;;;;;7.71;100.00;100379.94;6211026;28;20237;-67
2024/02/07 13:19:36;;;;;;;4.07;1.93;;;;;;;7.77;100.00;100381.22;6231702;28;20228;-66
2024/02/07 13:22:57;;;;;;;4.30;2.27;;;;;;;7.55;100.00;100390.22;6221137;28;20236;-67
2024/02/07 13:26:21;;;;;;;2.60;1.80;;;;;;;7.57;100.00;100392.81;6222302;28;20233;-67
2024/02/07 13:29:46;;;;;;;6.40;2.83;;;;;;;7.51;100.00;100396.00;6228516;28;20217;-71
2024/02/07 13:33:07;;;;;;;2.10;1.70;;;;;;;7.59;100.00;100388.16;6213206;28;20237;-68
2024/02/07 13:36:29;;;;;;;4.83;2.07;;;;;;;7.61;100.00;100387.06;6220617;28;20228;-69
2024/02/07 13:39:50;;;;;;;6.63;2.60;;;;;;;7.85;100.00;100393.03;6223276;28;20232;-69
2024/02/07 13:43:13;;;;;;;4.80;2.73;;;;;;;7.83;100.00;100389.63;6227116;28;20228;-69
2024/02/07 13:46:36;;;;;;;10.00;2.37;;;;;;;8.10;100.00;100386.38;6220331;28;20654;-66
2024/02/07 13:49:57;;;;;;;8.77;4.03;;;;;;;8.22;100.00;100387.19;6221823;28;20673;-66
2024/02/07 13:53:18;;;;;;;2.60;1.67;;;;;;;7.89;100.00;100394.44;6222998;28;20590;-66
2024/02/07 13:56:39;;;;;;;12.60;3.27;;;;;;;8.03;100.00;100379.88;6211402;28;20610;-68
2024/02/07 14:00:00;;;;;;;6.43;3.10;;;;;;;7.90;100.00;100396.16;6225787;28;20225;-71
2024/02/07 14:03:22;;;;;;;5.27;2.83;;;;;;;7.89;100.00;100402.50;6222407;28;20246;-66
2024/02/07 14:06:44;;;;;;;7.57;2.97;;;;;;;7.87;100.00;100400.94;6219504;28;21089;-68
2024/02/07 14:10:05;;;;;;;5.83;2.43;;;;;;;7.59;100.00;100406.94;6224843;28;20224;-66
2024/02/07 14:13:26;;;;;;;3.40;1.77;;;;;;;7.34;100.00;100415.31;6227295;28;20228;-68
2024/02/07 14:16:47;;;;;;;7.63;2.43;;;;;;;7.14;100.00;100398.19;6201272;28;20312;-68
2024/02/07 14:20:13;;;;;;;11.37;2.57;;;;;;;7.25;100.00;100419.63;6223996;28;20240;-68
2024/02/07 14:23:36;;;;;;;3.87;1.73;;;;;;;7.04;100.00;100408.84;6225183;28;20245;-67
2024/02/07 14:26:57;;;;;;;5.63;1.67;;;;;;;7.60;100.00;100408.63;6219765;28;20236;-71
2024/02/07 14:30:23;;;;;;;6.23;3.07;;;;;;;7.47;100.00;100406.13;6221099;28;20228;-68
2024/02/07 14:33:44;;;;;;;4.63;2.50;;;;;;;7.36;100.00;100408.00;6223561;28;20273;-67
2024/02/07 14:37:06;;;;;;;3.13;2.37;;;;;;;7.77;100.00;100413.44;6215773;28;20264;-66
2024/02/07 14:40:27;;;;;;;5.87;1.57;;;;;;;7.86;100.00;100413.50;6221522;28;20772;-69
2024/02/07 14:43:48;;;;;;;3.00;1.70;;;;;;;8.10;100.00;100407.88;6225098;28;20616;-68
2024/02/07 14:47:14;;;;;;;2.57;2.27;;;;;;;7.26;100.00;100407.91;6212575;28;20232;-68
2024/02/07 14:50:37;;;;;;;5.87;2.77;;;;;;;7.01;100.00;100411.75;6221847;28;20224;-68
2024/02/07 14:53:59;;;;;;;3.07;1.90;;;;;;;6.78;100.00;100415.44;6224353;28;20316;-68
2024/02/07 14:57:20;;;;;;;3.77;1.87;;;;;;;6.77;100.00;100413.75;6224966;28;20228;-69
2024/02/07 15:00:41;;;;;;;4.33;1.77;;;;;;;6.68;100.00;100413.63;6216429;28;20236;-68
2024/02/07 15:04:02;;;;;;;5.43;2.77;;;;;;;6.66;100.00;100426.28;6224038;28;20256;-70
2024/02/07 15:07:23;;;;;;;4.33;2.07;;;;;;;6.68;100.00;100419.84;6220692;28;20223;-69
2024/02/07 15:10:48;;;;;;;5.23;2.47;;;;;;;6.61;100.00;100421.31;6180063;28;20895;-69
2024/02/07 15:14:08;;;;;;;5.23;2.67;;;;;;;6.43;100.00;100425.44;6187070;28;20234;-70
2024/02/07 15:17:29;;;;;;;6.93;2.57;;;;;;;6.15;100.00;100426.72;6172660;28;20241;-69
2024/02/07 15:20:51;;;;;;;8.27;2.33;;;;;;;6.11;100.00;100427.13;6184791;28;20241;-69
2024/02/07 15:24:14;;;;;;;9.17;3.20;;;;;;;6.01;100.00;100420.75;6175126;28;20252;-70
2024/02/07 15:27:37;;;;;;;8.30;2.40;;;;;;;5.91;100.00;100417.06;6207811;28;20236;-70
2024/02/07 15:30:58;;;;;;;4.87;2.47;;;;;;;5.81;100.00;100421.41;6196338;23;20221;-69
2024/02/07 15:34:19;;;;;;;4.77;2.53;;;;;;;5.74;100.00;100421.00;6197564;28;20228;-69
2024/02/07 15:37:40;;;;;;;5.17;2.17;;;;;;;5.77;100.00;100425.28;6193866;28;20233;-70
2024/02/07 15:41:02;;;;;;;8.33;2.63;;;;;;;5.63;100.00;100432.53;6195660;28;20312;-69
2024/02/07 15:44:24;;;;;;;10.70;3.00;;;;;;;5.64;100.00;100415.53;6183854;28;20582;-70
2024/02/07 15:47:45;;;;;;;10.70;3.50;;;;;;;5.54;100.00;100424.34;6192296;28;20328;-70
2024/02/07 15:51:06;;;;;;;4.23;2.30;;;;;;;5.59;100.00;100427.56;6193282;28;20237;-70
2024/02/07 15:54:27;;;;;;;5.50;3.20;;;;;;;5.59;100.00;100427.56;6201735;28;20605;-70
2024/02/07 16:01:55;;;;;;;4.93;2.20;;;;;;;5.43;100.00;100426.97;6188739;28;20236;-70
2024/02/07 16:05:16;;;;;;;6.63;3.40;;;;;;;5.41;100.00;100434.25;6186304;28;20233;-69
2024/02/07 16:08:37;;;;;;;8.37;2.67;;;;;;;5.33;100.00;100432.16;6199073;28;20233;-70
2024/02/07 16:11:58;;;;;;;7.10;3.03;;;;;;;5.27;100.00;100434.44;6199235;28;20233;-69
2024/02/07 16:15:19;;;;;;;4.50;3.00;;;;;;;5.18;100.00;100437.78;6198860;28;20268;-69
2024/02/07 16:18:43;;;;;;;5.57;2.30;;;;;;;5.10;100.00;100445.50;6160110;28;20229;-70
2024/02/07 16:22:04;;;;;;;5.53;2.63;;;;;;;5.07;100.00;100443.91;6189966;28;20542;-70
2024/02/07 16:25:25;;;;;;;7.00;3.00;;;;;;;5.09;100.00;100433.13;6199541;28;20225;-70
2024/02/07 16:28:47;;;;;;;10.40;2.43;;;;;;;5.02;100.00;100445.22;6197309;28;20242;-71
2024/02/07 16:32:08;;;;;;;6.30;1.90;;;;;;;4.97;100.00;100447.34;6178879;28;20225;-71
2024/02/07 16:35:30;;;;;;;5.43;2.10;;;;;;;4.84;100.00;100444.72;6182289;28;20525;-70
2024/02/07 16:38:59;;;;;;;2.70;2.10;;;;;;;4.85;100.00;100455.31;6177685;28;20582;-72
2024/02/07 16:42:20;;;;;;;4.47;2.00;;;;;;;4.79;100.00;100461.09;6195550;28;20233;-73
2024/02/07 16:45:44;;;;;;;10.10;2.67;;;;;;;5.01;100.00;100456.84;6193950;28;20233;-70
2024/02/07 16:49:09;;;;;;;3.77;2.60;;;;;;;4.96;100.00;100457.19;6190118;28;20225;-68
2024/02/07 16:52:31;;;;;;;8.33;3.60;;;;;;;4.84;100.00;100464.25;6197260;28;20229;-70